Time;durP1;ratioP1;P1;durP2;ratioP2;P2;SDS_P1;SDS_P2;PMS_P1;PMS_P2;Temp;Humidity;BMP_temperature;BMP_pressure;BME280_temperature;BME280_humidity;BME280_pressure;Samples;Min_cycle;Max_cycle;Signal;HPM_P1;HPM_P2
2022/04/06 00:01:52;;;;;;;29.90;17.13;;;;;;;10.09;76.26;99237.13;5004059;28;20045;-87
2022/04/06 00:04:19;;;;;;;26.25;17.55;;;;;;;10.08;76.39;99234.63;5006355;28;20049;-87
2022/04/06 00:06:46;;;;;;;34.45;18.75;;;;;;;10.10;76.13;99235.31;5004960;28;21505;-87
2022/04/06 00:09:18;;;;;;;27.75;16.73;;;;;;;10.10;76.18;99230.84;5006663;28;20416;-87
2022/04/06 00:11:45;;;;;;;29.98;18.42;;;;;;;10.08;76.40;99227.50;5038106;28;20078;-87
2022/04/06 00:14:13;;;;;;;31.80;18.42;;;;;;;10.12;76.29;99228.03;5023619;28;20588;-87
2022/04/06 00:16:40;;;;;;;26.55;17.20;;;;;;;10.12;76.25;99215.59;5019946;28;20053;-87
2022/04/06 00:19:07;;;;;;;27.60;16.52;;;;;;;10.10;75.96;99214.94;5024081;28;20061;-87
2022/04/06 00:21:35;;;;;;;27.05;16.52;;;;;;;10.10;76.21;99214.94;5007616;28;20407;-87
2022/04/06 00:24:02;;;;;;;27.30;16.30;;;;;;;10.11;76.27;99226.38;4989395;28;20041;-87
2022/04/06 00:26:29;;;;;;;29.27;15.27;;;;;;;10.11;76.24;99213.13;5017050;28;20515;-87
2022/04/06 00:28:56;;;;;;;24.98;16.52;;;;;;;10.10;76.25;99211.44;5023318;28;20142;-87
2022/04/06 00:31:23;;;;;;;27.60;16.38;;;;;;;10.11;76.12;99213.94;5030438;28;20061;-88
2022/04/06 00:33:50;;;;;;;22.98;15.07;;;;;;;10.13;76.41;99200.53;5016636;28;20500;-87
2022/04/06 00:36:17;;;;;;;30.27;15.50;;;;;;;10.12;76.25;99206.81;5039406;28;20041;-87
2022/04/06 00:38:44;;;;;;;26.45;15.55;;;;;;;10.12;76.41;99205.00;4997922;28;20060;-87
2022/04/06 00:41:11;;;;;;;22.67;13.52;;;;;;;10.12;76.40;99202.34;5004964;28;20057;-87
2022/04/06 00:43:38;;;;;;;25.20;14.55;;;;;;;10.14;75.89;99205.69;5018690;28;20111;-87
2022/04/06 00:46:04;;;;;;;24.77;15.35;;;;;;;10.16;76.41;99200.25;5033110;28;20079;-88
2022/04/06 00:48:31;;;;;;;24.15;14.52;;;;;;;10.13;76.41;99196.06;5038328;28;20053;-87
2022/04/06 00:50:58;;;;;;;23.98;14.23;;;;;;;10.12;76.19;99193.56;5002624;28;20049;-88
2022/04/06 00:53:25;;;;;;;18.02;11.57;;;;;;;10.10;76.50;99191.06;5026107;28;20060;-87
2022/04/06 00:55:53;;;;;;;22.27;13.85;;;;;;;10.13;76.46;99187.28;5022106;28;20052;-87
2022/04/06 00:58:20;;;;;;;24.75;14.57;;;;;;;10.12;76.25;99182.94;5022724;28;20494;-87
2022/04/06 01:00:47;;;;;;;22.75;13.10;;;;;;;10.13;76.29;99190.75;4986091;28;20061;-87
2022/04/06 01:03:15;;;;;;;26.52;14.98;;;;;;;10.12;76.52;99189.06;5054936;28;20504;-87
2022/04/06 01:05:43;;;;;;;26.73;13.95;;;;;;;10.13;76.53;99182.81;5037317;28;20045;-87
2022/04/06 01:08:11;;;;;;;23.17;14.30;;;;;;;10.13;76.17;99168.72;5019661;28;20135;-87
2022/04/06 01:10:39;;;;;;;26.90;14.25;;;;;;;10.12;76.45;99170.50;4986998;28;20043;-87
2022/04/06 01:13:06;;;;;;;21.67;13.00;;;;;;;10.12;76.68;99172.31;5008464;28;20061;-88
2022/04/06 01:15:33;;;;;;;27.05;15.27;;;;;;;10.14;76.52;99175.66;5028010;28;20492;-87
2022/04/06 01:18:00;;;;;;;25.67;14.75;;;;;;;10.14;76.49;99170.38;4989307;28;20053;-87
2022/04/06 01:20:29;;;;;;;22.55;14.23;;;;;;;10.13;76.27;99164.22;5038177;28;20393;-88
2022/04/06 01:22:56;;;;;;;25.38;14.77;;;;;;;10.15;76.24;99169.38;5008122;28;20105;-87
2022/04/06 01:25:23;;;;;;;25.92;13.60;;;;;;;10.13;76.20;99158.94;5025053;28;20399;-88
2022/04/06 01:27:49;;;;;;;23.45;13.82;;;;;;;10.15;76.19;99151.66;5022560;28;20135;-87
2022/04/06 01:30:16;;;;;;;21.05;13.20;;;;;;;10.13;76.38;99156.28;4993522;28;20053;-87
2022/04/06 01:32:43;;;;;;;23.80;13.55;;;;;;;10.15;76.23;99151.66;5008511;28;20048;-87
2022/04/06 01:35:10;;;;;;;22.70;13.50;;;;;;;10.14;76.22;99154.44;5035042;28;20048;-87
2022/04/06 01:37:37;;;;;;;20.42;12.90;;;;;;;10.15;75.96;99153.44;5007657;28;20123;-87
2022/04/06 01:40:05;;;;;;;20.30;12.20;;;;;;;10.14;76.03;99155.28;5031636;28;20046;-87
2022/04/06 01:42:32;;;;;;;24.40;12.88;;;;;;;10.14;75.98;99149.97;4990921;28;20128;-87
2022/04/06 01:45:00;;;;;;;21.92;12.30;;;;;;;10.16;76.13;99147.19;5011208;28;20580;-87
2022/04/06 01:47:26;;;;;;;19.60;11.35;;;;;;;10.15;76.12;99134.88;5036120;28;20570;-87
2022/04/06 01:52:39;;;;;;;19.23;11.18;;;;;;;10.15;75.77;99132.22;5018580;28;20068;-87
2022/04/06 01:55:09;;;;;;;23.75;12.93;;;;;;;10.14;76.03;99127.91;5027011;28;20048;-87
2022/04/06 01:57:37;;;;;;;24.27;12.07;;;;;;;10.15;75.95;99127.78;5003297;28;20052;-87
2022/04/06 02:00:09;;;;;;;21.63;11.32;;;;;;;10.14;75.92;99127.91;4991513;28;20445;-87
2022/04/06 02:02:52;;;;;;;17.40;10.98;;;;;;;10.09;75.89;99125.72;4987368;28;20052;-87
2022/04/06 02:05:20;;;;;;;24.08;11.95;;;;;;;10.16;75.83;99118.00;5010088;28;20048;-87
2022/04/06 02:07:47;;;;;;;22.75;11.68;;;;;;;10.16;75.67;99118.81;5007164;28;20068;-87
2022/04/06 02:10:15;;;;;;;23.42;11.88;;;;;;;10.19;75.90;99120.34;4991547;28;20076;-87
2022/04/06 02:12:42;;;;;;;20.60;11.50;;;;;;;10.16;75.71;99128.63;4994325;28;20075;-87
2022/04/06 02:15:10;;;;;;;19.48;11.70;;;;;;;10.18;75.83;99121.34;5040987;28;20049;-87
2022/04/06 02:17:38;;;;;;;19.27;10.65;;;;;;;10.17;75.69;99106.38;5022198;28;20059;-87
2022/04/06 02:20:05;;;;;;;18.38;11.10;;;;;;;10.17;75.49;99114.34;5007272;28;20045;-87
2022/04/06 02:22:32;;;;;;;19.88;10.77;;;;;;;10.17;75.43;99117.00;5015174;28;20080;-87
2022/04/06 02:24:59;;;;;;;19.10;10.52;;;;;;;10.16;75.48;99107.38;5017365;28;20445;-87
2022/04/06 02:27:26;;;;;;;19.02;10.70;;;;;;;10.15;75.70;99109.22;4988297;28;20052;-87
2022/04/06 02:29:53;;;;;;;18.90;10.63;;;;;;;10.16;75.50;99110.88;5028778;28;20041;-87
2022/04/06 02:32:19;;;;;;;18.98;10.77;;;;;;;10.16;75.54;99104.72;4992969;28;20065;-87
2022/04/06 02:34:52;;;;;;;20.80;11.60;;;;;;;10.18;75.59;99102.78;5035575;28;20069;-87
2022/04/06 02:37:18;;;;;;;24.92;10.48;;;;;;;10.17;75.48;99109.03;4989714;28;20049;-87
2022/04/06 02:39:45;;;;;;;22.63;9.73;;;;;;;10.15;75.58;99103.91;5009779;28;20045;-87
2022/04/06 02:42:12;;;;;;;22.98;10.70;;;;;;;10.19;75.45;99102.59;5024109;28;20657;-87
2022/04/06 02:44:39;;;;;;;18.77;10.10;;;;;;;10.20;75.37;99093.69;5036924;28;20045;-87
2022/04/06 02:47:06;;;;;;;20.10;11.70;;;;;;;10.19;75.53;99107.06;5009770;28;20045;-88
2022/04/06 02:49:33;;;;;;;19.65;10.70;;;;;;;10.15;75.59;99098.59;5005869;28;20067;-87
2022/04/06 02:52:00;;;;;;;19.42;10.20;;;;;;;10.18;75.24;99103.59;5016782;28;20079;-87
2022/04/06 02:54:27;;;;;;;21.10;10.32;;;;;;;10.18;75.46;99094.81;5022582;28;20081;-87
2022/04/06 02:56:54;;;;;;;17.73;9.65;;;;;;;10.20;75.59;99096.31;4992550;28;20049;-87
2022/04/06 02:59:21;;;;;;;16.98;9.90;;;;;;;10.19;75.20;99093.81;4990657;28;20049;-87
2022/04/06 03:01:48;;;;;;;20.08;11.30;;;;;;;10.20;75.38;99092.81;5022797;28;20534;-88
2022/04/06 03:04:15;;;;;;;18.30;9.88;;;;;;;10.18;75.56;99087.69;4986889;28;20110;-87
2022/04/06 03:06:42;;;;;;;18.33;9.95;;;;;;;10.20;75.34;99088.38;4992023;28;20508;-87
2022/04/06 03:09:09;;;;;;;21.33;12.75;;;;;;;10.19;75.08;99085.84;4987153;28;20520;-87
2022/04/06 03:11:36;;;;;;;21.60;12.93;;;;;;;10.19;75.33;99088.50;5035272;28;20053;-87
2022/04/06 03:14:03;;;;;;;17.65;11.68;;;;;;;10.19;75.03;99089.34;5023586;28;20041;-85
2022/04/06 03:16:29;;;;;;;21.77;11.50;;;;;;;10.20;75.37;99092.81;5004322;28;20080;-85
2022/04/06 03:18:57;;;;;;;20.65;10.63;;;;;;;10.20;75.33;99087.50;5020782;28;20475;-85
2022/04/06 03:21:23;;;;;;;18.42;9.85;;;;;;;10.20;75.16;99088.38;5037450;28;20056;-86
2022/04/06 03:23:50;;;;;;;23.63;11.20;;;;;;;10.21;75.48;99087.38;4991747;28;20037;-86
2022/04/06 03:26:17;;;;;;;23.55;12.15;;;;;;;10.21;75.37;99081.25;5007377;28;20072;-85
2022/04/06 03:28:44;;;;;;;17.85;9.73;;;;;;;10.21;75.25;99083.88;5001997;28;20049;-85
2022/04/06 03:31:10;;;;;;;23.15;12.25;;;;;;;10.21;75.28;99076.75;4990505;28;20041;-86
2022/04/06 03:33:37;;;;;;;26.40;12.88;;;;;;;10.22;75.44;99082.88;5005208;28;20037;-86
2022/04/06 03:36:04;;;;;;;23.35;11.68;;;;;;;10.22;75.29;99075.75;4985558;28;20051;-85
2022/04/06 03:38:31;;;;;;;24.13;11.65;;;;;;;10.23;75.27;99076.63;5035199;28;20033;-85
2022/04/06 03:40:58;;;;;;;24.95;11.68;;;;;;;10.23;75.27;99073.97;5008413;28;20048;-85
2022/04/06 03:43:25;;;;;;;26.90;12.68;;;;;;;10.22;75.10;99073.09;5017936;28;20103;-85
2022/04/06 03:45:52;;;;;;;20.65;10.00;;;;;;;10.22;75.26;99072.28;4988249;28;20048;-85
2022/04/06 03:48:22;;;;;;;24.45;12.75;;;;;;;10.21;75.11;99071.44;5009534;28;20707;-85
2022/04/06 03:50:50;;;;;;;21.48;11.30;;;;;;;10.23;75.29;99073.97;4981066;28;20060;-85
2022/04/06 03:53:17;;;;;;;18.42;10.25;;;;;;;10.22;75.09;99080.25;5002208;28;20068;-85
2022/04/06 03:55:44;;;;;;;21.00;11.40;;;;;;;10.23;75.18;99071.31;5007786;28;20056;-85
2022/04/06 03:58:11;;;;;;;22.83;11.50;;;;;;;10.22;75.34;99067.81;4982933;28;20168;-85
2022/04/06 04:00:37;;;;;;;23.27;11.75;;;;;;;10.23;75.23;99073.97;5002337;28;20048;-85
2022/04/06 04:03:06;;;;;;;21.58;10.95;;;;;;;10.22;75.29;99078.41;5005794;28;20126;-85
2022/04/06 04:05:33;;;;;;;22.58;11.30;;;;;;;10.22;75.24;99064.31;4992961;28;20496;-85
2022/04/06 04:08:00;;;;;;;23.35;12.20;;;;;;;10.23;75.38;99060.69;4988619;28;20056;-85
2022/04/06 04:10:27;;;;;;;17.73;10.73;;;;;;;10.23;75.21;99068.66;5005096;28;20049;-86
2022/04/06 04:12:53;;;;;;;17.83;10.00;;;;;;;10.24;75.15;99062.34;5019045;28;20467;-86
2022/04/06 04:15:20;;;;;;;23.15;10.88;;;;;;;10.24;75.42;99064.19;5025347;28;20103;-86
2022/04/06 04:17:47;;;;;;;19.75;11.05;;;;;;;10.25;75.22;99064.00;5026877;28;20071;-86
2022/04/06 04:20:15;;;;;;;18.83;10.23;;;;;;;10.24;75.39;99058.88;5001758;28;20602;-86
2022/04/06 04:22:42;;;;;;;16.70;10.07;;;;;;;10.24;75.06;99056.22;5003898;28;20100;-84
2022/04/06 04:25:10;;;;;;;19.77;10.82;;;;;;;10.24;75.20;99056.22;5004409;28;20131;-85
2022/04/06 04:27:37;;;;;;;22.83;10.95;;;;;;;10.22;75.25;99059.84;5022796;28;20069;-85
2022/04/06 04:30:08;;;;;;;20.95;11.32;;;;;;;10.24;75.21;99053.56;5002775;28;20111;-84
2022/04/06 04:32:37;;;;;;;21.73;11.30;;;;;;;10.23;75.26;99050.09;5004381;28;20069;-85
2022/04/06 04:35:11;;;;;;;18.02;9.82;;;;;;;10.24;75.56;99051.75;5002488;28;20107;-84
2022/04/06 04:37:38;;;;;;;18.70;10.88;;;;;;;10.25;75.31;99055.22;5003417;28;20045;-85
2022/04/06 04:40:06;;;;;;;22.35;12.85;;;;;;;10.25;75.41;99055.22;5002995;28;20283;-85
2022/04/06 04:42:32;;;;;;;17.45;10.30;;;;;;;10.25;75.36;99060.53;4989882;28;20108;-85
2022/04/06 04:44:59;;;;;;;23.77;12.88;;;;;;;10.25;75.37;99057.88;5006930;28;20045;-85
2022/04/06 04:47:26;;;;;;;24.52;13.50;;;;;;;10.26;75.50;99062.22;5000563;28;20068;-84
2022/04/06 04:49:53;;;;;;;23.33;12.27;;;;;;;10.29;75.54;99053.97;5006751;28;20463;-85
2022/04/06 04:52:20;;;;;;;23.15;11.65;;;;;;;10.26;75.17;99057.72;5008324;28;20053;-86
2022/04/06 04:54:46;;;;;;;19.63;10.38;;;;;;;10.27;75.37;99048.78;4989354;28;20416;-85
2022/04/06 04:57:13;;;;;;;19.80;11.30;;;;;;;10.26;75.29;99056.91;5003812;28;20056;-85
2022/04/06 04:59:40;;;;;;;19.23;11.43;;;;;;;10.26;75.29;99054.25;4988741;28;20043;-85
2022/04/06 05:02:08;;;;;;;16.60;10.45;;;;;;;10.26;75.18;99048.94;4989267;23;20087;-83
2022/04/06 05:04:35;;;;;;;20.45;11.13;;;;;;;10.25;75.38;99042.78;4973525;28;20046;-84
2022/04/06 05:07:02;;;;;;;22.42;11.23;;;;;;;10.26;75.30;99049.78;4962486;28;20043;-84
2022/04/06 05:09:29;;;;;;;19.83;10.98;;;;;;;10.26;75.63;99057.72;4958211;28;20042;-83
2022/04/06 05:11:55;;;;;;;19.63;10.05;;;;;;;10.27;75.46;99048.78;4975066;28;20054;-84
2022/04/06 05:14:23;;;;;;;18.73;10.10;;;;;;;10.27;75.64;99045.28;4971068;28;20378;-84
2022/04/06 05:16:52;;;;;;;17.08;9.95;;;;;;;10.26;75.39;99051.59;4967805;28;20042;-83
2022/04/06 05:19:18;;;;;;;15.90;9.88;;;;;;;10.27;75.29;99046.13;4951803;28;20058;-84
2022/04/06 05:21:45;;;;;;;18.08;10.57;;;;;;;10.28;75.52;99046.97;4966671;28;20054;-84
2022/04/06 05:24:12;;;;;;;22.80;12.63;;;;;;;10.28;75.43;99041.66;4967777;28;20043;-83
2022/04/06 05:26:39;;;;;;;18.48;10.77;;;;;;;10.28;75.37;99039.88;4979466;28;20054;-83
2022/04/06 05:29:08;;;;;;;21.17;10.40;;;;;;;10.27;75.41;99046.13;4968569;28;20093;-84
2022/04/06 05:31:36;;;;;;;22.20;11.80;;;;;;;10.27;75.42;99053.25;4962942;28;20051;-84
2022/04/06 05:34:03;;;;;;;18.13;10.00;;;;;;;10.27;75.25;99042.63;4968550;28;20119;-84
2022/04/06 05:36:29;;;;;;;19.67;11.18;;;;;;;10.28;75.33;99047.84;4972278;28;20503;-84
2022/04/06 05:38:57;;;;;;;19.60;11.23;;;;;;;10.28;75.33;99044.31;4970075;28;20043;-84
2022/04/06 05:41:24;;;;;;;20.52;11.45;;;;;;;10.27;75.33;99047.94;4983637;28;20134;-84
2022/04/06 05:43:51;;;;;;;19.70;11.20;;;;;;;10.26;75.43;99044.47;4976826;28;20051;-84
2022/04/06 05:46:17;;;;;;;19.90;11.77;;;;;;;10.26;75.75;99044.47;4983709;28;20093;-84
2022/04/06 05:48:45;;;;;;;21.75;11.80;;;;;;;10.26;75.51;99047.13;4960652;28;20524;-83
2022/04/06 05:51:12;;;;;;;20.13;11.77;;;;;;;10.25;75.87;99048.09;4975105;28;20049;-84
2022/04/06 05:53:39;;;;;;;17.25;11.30;;;;;;;10.27;75.82;99050.59;4967741;28;20137;-83
2022/04/06 05:56:06;;;;;;;21.08;11.95;;;;;;;10.27;75.56;99050.59;4968261;28;20054;-84
2022/04/06 05:58:33;;;;;;;20.80;11.75;;;;;;;10.27;75.58;99051.44;4966421;28;20102;-84
2022/04/06 06:00:59;;;;;;;20.10;11.70;;;;;;;10.28;75.67;99055.78;4973944;28;20043;-84
2022/04/06 06:03:26;;;;;;;25.92;13.35;;;;;;;10.28;75.62;99060.25;4990806;28;20054;-84
2022/04/06 06:05:54;;;;;;;25.02;12.65;;;;;;;10.28;75.81;99063.75;4969236;28;20392;-84
2022/04/06 06:08:20;;;;;;;19.35;11.82;;;;;;;10.26;75.90;99060.38;4977999;28;20058;-83
2022/04/06 06:10:47;;;;;;;21.42;12.43;;;;;;;10.27;76.03;99058.56;4972536;28;20069;-84
2022/04/06 06:13:14;;;;;;;21.42;11.68;;;;;;;10.27;76.07;99063.88;4984601;28;20041;-84
2022/04/06 06:15:41;;;;;;;22.35;13.00;;;;;;;10.27;76.41;99069.19;4970426;28;20078;-83
2022/04/06 06:18:08;;;;;;;20.58;11.82;;;;;;;10.26;76.57;99062.22;4968799;28;20049;-83
2022/04/06 06:20:35;;;;;;;19.55;11.48;;;;;;;10.25;76.71;99066.66;4970337;28;20046;-84
2022/04/06 06:23:02;;;;;;;15.77;9.48;;;;;;;10.26;76.49;99051.59;4974147;28;20444;-84
2022/04/06 06:25:30;;;;;;;21.48;10.40;;;;;;;10.26;76.42;99054.25;4967102;28;20066;-83
2022/04/06 06:27:56;;;;;;;22.85;12.23;;;;;;;10.26;76.60;99057.72;4978391;28;20113;-84
2022/04/06 06:30:26;;;;;;;17.08;10.38;;;;;;;10.26;76.74;99057.72;4973378;28;20051;-84
2022/04/06 06:32:54;;;;;;;17.80;10.05;;;;;;;10.27;76.64;99061.22;4971775;28;20130;-84
2022/04/06 06:35:21;;;;;;;21.98;11.02;;;;;;;10.27;76.67;99053.25;4983434;28;20604;-83
2022/04/06 06:37:50;;;;;;;22.15;11.25;;;;;;;10.26;76.75;99051.59;4970632;28;20047;-84
2022/04/06 06:40:20;;;;;;;16.77;10.75;;;;;;;10.29;76.67;99059.28;4982349;28;20053;-84
2022/04/06 06:42:47;;;;;;;18.02;10.68;;;;;;;10.27;76.76;99054.09;4961271;28;20494;-84
2022/04/06 06:45:14;;;;;;;20.10;11.07;;;;;;;10.29;76.74;99054.78;4980627;28;20059;-84
2022/04/06 06:47:41;;;;;;;15.13;9.20;;;;;;;10.29;76.62;99054.78;4952063;28;20693;-84
2022/04/06 06:50:09;;;;;;;15.90;9.48;;;;;;;10.29;76.70;99054.78;4974314;28;20074;-84
2022/04/06 06:52:36;;;;;;;14.95;8.65;;;;;;;10.30;76.38;99059.09;4957820;28;20497;-83
2022/04/06 06:55:04;;;;;;;16.92;8.73;;;;;;;10.30;76.53;99051.16;4969560;28;20134;-84
2022/04/06 06:57:31;;;;;;;16.05;9.18;;;;;;;10.32;76.84;99054.50;4992773;28;20047;-80
2022/04/06 06:59:58;;;;;;;17.52;8.65;;;;;;;10.34;76.42;99060.47;4969986;28;20066;-80
2022/04/06 07:02:25;;;;;;;13.55;8.80;;;;;;;10.34;76.49;99049.88;4964558;28;20490;-80
2022/04/06 07:04:52;;;;;;;19.15;9.43;;;;;;;10.34;76.50;99062.31;4969397;28;20528;-80
2022/04/06 07:07:18;;;;;;;15.02;8.60;;;;;;;10.37;76.41;99059.34;4970188;28;20058;-79
2022/04/06 07:09:46;;;;;;;18.73;9.82;;;;;;;10.36;76.60;99049.72;4968878;28;20066;-79
2022/04/06 07:12:12;;;;;;;17.42;10.05;;;;;;;10.43;76.72;99050.75;4966833;28;20146;-80
2022/04/06 07:14:39;;;;;;;21.98;10.25;;;;;;;10.38;76.75;99050.38;4973221;28;20652;-80
2022/04/06 07:17:06;;;;;;;14.35;9.15;;;;;;;10.38;76.79;99048.59;4973309;28;20054;-80
2022/04/06 07:19:33;;;;;;;16.50;8.85;;;;;;;10.39;76.74;99050.25;4972258;28;20101;-80
2022/04/06 07:22:00;;;;;;;15.45;9.63;;;;;;;10.42;76.71;99046.44;4969709;28;20042;-80
2022/04/06 07:24:27;;;;;;;18.50;10.63;;;;;;;10.41;77.27;99045.63;4969619;28;20050;-80
2022/04/06 07:26:53;;;;;;;16.33;9.73;;;;;;;10.37;76.98;99041.59;4976842;28;20551;-80
2022/04/06 07:29:20;;;;;;;18.70;11.02;;;;;;;10.36;77.35;99039.94;4969477;28;20043;-79
2022/04/06 07:31:47;;;;;;;18.17;10.55;;;;;;;10.38;76.91;99043.28;4968480;28;20046;-81
2022/04/06 07:34:14;;;;;;;16.98;10.38;;;;;;;10.38;76.78;99034.44;4970380;28;20035;-80
2022/04/06 07:36:40;;;;;;;17.77;11.57;;;;;;;10.38;76.87;99045.06;4963579;28;20109;-80
2022/04/06 07:39:07;;;;;;;23.55;11.80;;;;;;;10.41;77.09;99040.31;4980324;28;20054;-81
2022/04/06 07:41:34;;;;;;;18.85;12.20;;;;;;;10.44;76.98;99036.50;4964996;28;20046;-79
2022/04/06 07:44:02;;;;;;;19.15;11.93;;;;;;;10.47;76.63;99044.16;4975348;28;20043;-80
2022/04/06 07:46:28;;;;;;;23.30;12.93;;;;;;;10.46;76.93;99039.00;4964977;28;20540;-81
2022/04/06 07:48:55;;;;;;;20.08;12.52;;;;;;;10.50;76.61;99025.25;4957065;28;20042;-79
2022/04/06 07:51:22;;;;;;;19.55;13.18;;;;;;;10.48;76.97;99021.97;4973458;28;20054;-79
2022/04/06 07:53:49;;;;;;;20.85;12.50;;;;;;;10.49;76.82;99028.91;4972612;28;20147;-80
2022/04/06 07:56:18;;;;;;;22.27;12.90;;;;;;;10.53;76.91;99024.97;4981219;28;20062;-80
2022/04/06 07:58:45;;;;;;;18.92;12.38;;;;;;;10.54;76.73;99020.50;4970167;28;20043;-80
2022/04/06 08:01:12;;;;;;;19.63;12.40;;;;;;;10.53;77.10;99024.97;4965910;28;20043;-80
2022/04/06 08:03:39;;;;;;;18.88;10.85;;;;;;;10.54;76.82;99025.81;4964789;28;20042;-79
2022/04/06 08:06:05;;;;;;;15.65;9.57;;;;;;;10.57;76.87;99030.78;4962940;28;20046;-79
2022/04/06 08:08:33;;;;;;;20.52;10.80;;;;;;;10.58;77.03;99024.47;4971362;28;20050;-80
2022/04/06 08:11:00;;;;;;;17.63;9.65;;;;;;;10.58;76.84;99021.84;4967657;28;20050;-80
2022/04/06 08:13:26;;;;;;;17.00;9.07;;;;;;;10.59;76.88;99019.03;4971107;28;20493;-79
2022/04/06 08:15:54;;;;;;;15.60;8.57;;;;;;;10.61;76.55;99022.38;4985702;28;20046;-80
2022/04/06 08:18:22;;;;;;;14.82;8.65;;;;;;;10.67;76.59;99020.09;4971142;28;20141;-80
2022/04/06 08:20:49;;;;;;;14.23;7.93;;;;;;;10.67;76.54;99012.94;4971101;28;20056;-80
2022/04/06 08:23:17;;;;;;;12.40;8.13;;;;;;;10.65;76.35;99023.72;4966562;28;20054;-80
2022/04/06 08:25:45;;;;;;;12.98;7.97;;;;;;;10.69;76.50;99021.59;4969997;28;20062;-81
2022/04/06 08:28:11;;;;;;;12.32;7.13;;;;;;;10.70;76.18;99017.09;4980375;28;20043;-79
2022/04/06 08:30:42;;;;;;;13.63;7.43;;;;;;;10.69;75.84;99010.97;4963753;28;20039;-79
2022/04/06 08:33:10;;;;;;;11.88;7.05;;;;;;;10.73;75.84;99017.63;4965255;28;20046;-80
2022/04/06 08:35:37;;;;;;;10.88;6.35;;;;;;;10.71;75.75;99013.44;4951822;28;20047;-80
2022/04/06 08:38:05;;;;;;;11.35;6.75;;;;;;;10.74;75.70;99013.16;4972222;28;20057;-80
2022/04/06 08:40:32;;;;;;;11.43;5.88;;;;;;;10.75;75.69;99006.84;4955283;28;20038;-79
2022/04/06 08:43:00;;;;;;;16.50;6.15;;;;;;;10.78;75.31;99019.81;4978160;28;20071;-80
2022/04/06 08:45:28;;;;;;;12.88;6.18;;;;;;;10.76;75.29;99016.47;4979315;28;20074;-81
2022/04/06 08:47:57;;;;;;;11.02;5.65;;;;;;;10.77;75.27;99015.50;4968205;28;20053;-79
2022/04/06 08:50:27;;;;;;;12.85;6.13;;;;;;;10.78;74.78;99012.66;4984207;28;20054;-80
2022/04/06 08:52:55;;;;;;;10.63;5.72;;;;;;;10.79;74.14;99011.69;4970568;28;20134;-79
2022/04/06 08:55:32;;;;;;;14.02;5.80;;;;;;;10.78;74.27;99010.00;4973143;28;20050;-79
2022/04/06 08:58:00;;;;;;;14.98;6.22;;;;;;;10.77;74.61;99016.31;4963642;28;20126;-81
2022/04/06 09:00:27;;;;;;;11.90;5.32;;;;;;;10.79;74.76;99011.69;4966629;28;20511;-80
2022/04/06 09:02:54;;;;;;;7.60;4.88;;;;;;;10.82;74.95;99014.03;4970426;28;20047;-84
2022/04/06 09:05:23;;;;;;;10.75;5.90;;;;;;;10.91;74.27;99006.91;4982400;28;20139;-84
2022/04/06 09:07:53;;;;;;;12.10;5.63;;;;;;;10.89;74.32;99016.03;4966104;28;20077;-83
2022/04/06 09:10:33;;;;;;;10.52;5.90;;;;;;;10.82;74.08;99003.41;4974095;28;20054;-84
2022/04/06 09:13:12;;;;;;;10.93;5.47;;;;;;;10.90;73.80;99005.28;4950491;28;20082;-83
2022/04/06 09:15:39;;;;;;;10.88;6.13;;;;;;;10.99;73.73;99014.97;4975016;28;20050;-84
2022/04/06 09:18:06;;;;;;;9.52;5.63;;;;;;;11.00;74.01;99008.63;4967888;28;20466;-84
2022/04/06 09:20:33;;;;;;;9.73;5.38;;;;;;;11.01;74.25;99009.47;4962433;28;20039;-84
2022/04/06 09:23:03;;;;;;;11.00;5.03;;;;;;;11.03;74.18;99013.63;4962941;28;20158;-84
2022/04/06 09:25:41;;;;;;;10.23;5.47;;;;;;;11.05;73.51;99008.16;4980217;28;20052;-84
2022/04/06 09:28:14;;;;;;;8.38;5.35;;;;;;;11.06;73.25;99015.13;5007639;28;20053;-84
2022/04/06 09:30:43;;;;;;;11.88;6.15;;;;;;;11.14;72.86;99014.34;4959586;28;20046;-84
2022/04/06 09:33:18;;;;;;;16.40;6.25;;;;;;;11.09;72.66;99006.84;4969089;28;20066;-84
2022/04/06 09:35:45;;;;;;;10.93;5.47;;;;;;;11.10;72.86;99000.56;4959207;28;20122;-84
2022/04/06 09:38:16;;;;;;;10.50;5.22;;;;;;;11.07;73.31;99001.72;4977234;28;20042;-84
2022/04/06 09:40:43;;;;;;;13.23;5.15;;;;;;;11.09;72.84;98998.88;4996028;28;20042;-84
2022/04/06 09:43:28;;;;;;;13.27;5.75;;;;;;;10.99;72.57;98996.38;4976487;28;20050;-84
2022/04/06 09:49:01;;;;;;;10.52;5.07;;;;;;;11.11;72.50;99004.88;4974128;28;20486;-84
2022/04/06 09:51:28;;;;;;;8.13;5.03;;;;;;;11.08;72.72;98990.06;4989294;28;20053;-83
2022/04/06 09:53:55;;;;;;;18.48;6.30;;;;;;;11.10;72.56;98991.75;4981145;28;20104;-84
2022/04/06 09:56:22;;;;;;;11.65;5.18;;;;;;;11.12;71.72;98987.09;4972565;28;20054;-83
2022/04/06 09:58:50;;;;;;;11.35;5.50;;;;;;;11.12;71.73;98990.59;4976868;28;20097;-83
2022/04/06 10:01:18;;;;;;;12.40;5.45;;;;;;;11.10;71.56;98981.13;4960857;28;20500;-84
2022/04/06 10:03:50;;;;;;;11.57;5.65;;;;;;;11.05;71.27;98976.28;4983302;28;20040;-84
2022/04/06 10:06:17;;;;;;;8.68;4.88;;;;;;;11.04;71.91;98975.47;4980404;28;20069;-83
2022/04/06 10:08:45;;;;;;;10.95;4.15;;;;;;;11.06;71.93;98981.44;4972714;28;20054;-83
2022/04/06 10:11:12;;;;;;;9.98;5.07;;;;;;;11.05;71.97;98969.16;4983270;28;20043;-84
2022/04/06 10:13:40;;;;;;;9.88;5.03;;;;;;;11.10;72.29;98968.66;4978290;28;20557;-83
2022/04/06 10:16:20;;;;;;;9.23;4.78;;;;;;;11.15;72.01;98957.56;4977138;28;20134;-82
2022/04/06 10:18:48;;;;;;;6.13;4.20;;;;;;;11.18;72.26;98959.91;4966895;28;20429;-84
2022/04/06 10:21:36;;;;;;;6.97;4.60;;;;;;;11.18;72.48;98955.41;4974673;28;20047;-83
2022/04/06 10:24:26;;;;;;;9.95;5.28;;;;;;;11.28;72.10;98956.09;4952808;28;20409;-83
2022/04/06 10:27:15;;;;;;;9.18;5.55;;;;;;;11.21;71.34;98951.59;4959533;28;20575;-84
2022/04/06 10:30:13;;;;;;;8.20;5.18;;;;;;;11.25;71.98;98944.97;4980985;28;20047;-83
2022/04/06 10:32:42;;;;;;;12.02;5.50;;;;;;;11.37;71.84;98934.84;4927397;28;20509;-84
2022/04/06 10:35:26;;;;;;;11.05;5.32;;;;;;;11.36;71.82;98928.72;4981228;28;20441;-83
2022/04/06 10:38:14;;;;;;;12.85;7.38;;;;;;;11.33;71.81;98925.56;4958899;28;20047;-83
2022/04/06 10:40:47;;;;;;;8.82;5.35;;;;;;;11.38;71.54;98925.91;4953138;28;20117;-84
2022/04/06 10:43:40;;;;;;;10.52;5.32;;;;;;;11.32;71.38;98927.38;4995773;28;20046;-84
2022/04/06 10:46:07;;;;;;;12.68;6.50;;;;;;;11.49;71.26;98917.59;4964279;28;20094;-83
2022/04/06 10:48:35;;;;;;;9.20;6.65;;;;;;;11.51;71.55;98916.44;4964137;28;20052;-83
2022/04/06 10:51:27;;;;;;;10.05;6.32;;;;;;;11.53;72.12;98913.63;4971435;28;20062;-84
2022/04/06 10:53:54;;;;;;;13.18;6.78;;;;;;;11.62;70.95;98895.84;4931871;28;20409;-83
2022/04/06 10:56:22;;;;;;;9.80;6.18;;;;;;;11.66;71.21;98906.00;4968921;28;20493;-84
2022/04/06 10:58:55;;;;;;;11.35;6.43;;;;;;;11.63;70.29;98887.72;4966632;28;20449;-84
2022/04/06 11:01:31;;;;;;;8.77;6.18;;;;;;;11.57;70.37;98893.69;4971120;28;20072;-83
2022/04/06 11:04:04;;;;;;;11.23;6.60;;;;;;;11.54;70.25;98904.66;4996558;28;20130;-84
2022/04/06 11:06:49;;;;;;;10.57;6.22;;;;;;;11.44;69.59;98890.69;4965827;28;20045;-84
2022/04/06 11:12:18;;;;;;;9.20;6.03;;;;;;;11.46;70.22;98910.78;4952337;28;20049;-83
2022/04/06 11:14:50;;;;;;;10.13;5.68;;;;;;;11.45;70.16;98906.47;4963772;28;20053;-84
2022/04/06 11:17:32;;;;;;;8.95;5.10;;;;;;;11.38;70.09;98901.97;4996751;28;20058;-83
2022/04/06 11:20:00;;;;;;;;;;;;;;;11.23;70.56;98893.81;4981006;28;20139;-84
2022/04/06 11:22:26;;;;;;;8.00;4.95;;;;;;;11.41;69.56;98883.03;4975899;28;20298;-84
2022/04/06 11:24:56;;;;;;;7.75;4.35;;;;;;;11.45;69.43;98887.03;4971345;28;20043;-84
2022/04/06 11:27:30;;;;;;;8.10;4.68;;;;;;;11.48;69.02;98874.25;4988543;28;20134;-84
2022/04/06 11:30:14;;;;;;;9.50;5.03;;;;;;;11.38;67.93;98888.69;4978857;28;20557;-83
2022/04/06 11:32:43;;;;;;;7.43;4.25;;;;;;;11.52;68.64;98880.91;4960218;28;20116;-83
2022/04/06 11:35:11;;;;;;;7.40;4.38;;;;;;;11.55;68.72;98882.41;4977929;28;20383;-83
2022/04/06 11:37:41;;;;;;;9.82;4.22;;;;;;;11.59;68.55;98875.75;4972520;28;20039;-84